sensor_id;sensor_type;location;lat;lon;timestamp;pressure;altitude;pressure_sealevel;temperature;humidity
57779;BME280;43608;49.486;9.640;2023-06-14T00:00:30;98319.22;;;11.54;68.57
57779;BME280;43608;49.486;9.640;2023-06-14T00:01:01;98333.28;;;11.63;68.63
57779;BME280;43608;49.486;9.640;2023-06-14T00:01:33;98313.97;;;11.51;68.66
57779;BME280;43608;49.486;9.640;2023-06-14T00:02:04;98330.66;;;11.60;69.01
57779;BME280;43608;49.486;9.640;2023-06-14T00:02:39;98332.41;;;11.61;68.92
57779;BME280;43608;49.486;9.640;2023-06-14T00:03:10;98328.00;;;11.60;69.43
57779;BME280;43608;49.486;9.640;2023-06-14T00:03:41;98316.66;;;11.50;68.93
57779;BME280;43608;49.486;9.640;2023-06-14T00:04:12;98329.81;;;11.57;69.14
57779;BME280;43608;49.486;9.640;2023-06-14T00:04:43;98336.03;;;11.55;68.98
57779;BME280;43608;49.486;9.640;2023-06-14T00:05:13;98310.56;;;11.43;69.07
57779;BME280;43608;49.486;9.640;2023-06-14T00:05:44;98320.19;;;11.49;69.00
57779;BME280;43608;49.486;9.640;2023-06-14T00:06:16;98334.28;;;11.54;69.15
57779;BME280;43608;49.486;9.640;2023-06-14T00:06:47;98329.91;;;11.50;69.43
57779;BME280;43608;49.486;9.640;2023-06-14T00:07:22;98332.53;;;11.51;69.46
57779;BME280;43608;49.486;9.640;2023-06-14T00:08:03;98336.13;;;11.47;69.69
57779;BME280;43608;49.486;9.640;2023-06-14T00:08:37;98333.47;;;11.49;69.64
57779;BME280;43608;49.486;9.640;2023-06-14T00:09:07;98325.53;;;11.44;69.61
57779;BME280;43608;49.486;9.640;2023-06-14T00:09:39;98331.69;;;11.48;69.58
57779;BME280;43608;49.486;9.640;2023-06-14T00:10:12;98337.03;;;11.46;69.62
57779;BME280;43608;49.486;9.640;2023-06-14T00:10:42;98315.91;;;11.38;69.85
57779;BME280;43608;49.486;9.640;2023-06-14T00:11:12;98328.19;;;11.44;70.08
57779;BME280;43608;49.486;9.640;2023-06-14T00:11:43;98328.22;;;11.43;70.13
57779;BME280;43608;49.486;9.640;2023-06-14T00:12:14;98329.13;;;11.43;69.88
57779;BME280;43608;49.486;9.640;2023-06-14T00:12:44;98331.78;;;11.43;69.75
57779;BME280;43608;49.486;9.640;2023-06-14T00:13:14;98318.53;;;11.40;69.77
57779;BME280;43608;49.486;9.640;2023-06-14T00:13:45;98328.22;;;11.43;69.92
57779;BME280;43608;49.486;9.640;2023-06-14T00:14:16;98330.91;;;11.41;69.84
57779;BME280;43608;49.486;9.640;2023-06-14T00:14:46;98315.06;;;11.35;69.89
57779;BME280;43608;49.486;9.640;2023-06-14T00:15:17;98314.19;;;11.34;69.69
57779;BME280;43608;49.486;9.640;2023-06-14T00:15:47;98326.56;;;11.34;69.77
57779;BME280;43608;49.486;9.640;2023-06-14T00:16:17;98317.72;;;11.35;69.90
57779;BME280;43608;49.486;9.640;2023-06-14T00:16:49;98322.19;;;11.33;69.83
57779;BME280;43608;49.486;9.640;2023-06-14T00:17:19;98319.47;;;11.36;69.81
57779;BME280;43608;49.486;9.640;2023-06-14T00:17:50;98313.41;;;11.26;69.88
57779;BME280;43608;49.486;9.640;2023-06-14T00:18:21;98322.09;;;11.37;69.87
57779;BME280;43608;49.486;9.640;2023-06-14T00:18:54;98301.06;;;11.25;69.85
57779;BME280;43608;49.486;9.640;2023-06-14T00:19:25;98317.75;;;11.32;69.90
57779;BME280;43608;49.486;9.640;2023-06-14T00:19:59;98323.91;;;11.35;69.86
57779;BME280;43608;49.486;9.640;2023-06-14T00:20:31;98313.34;;;11.31;69.93
57779;BME280;43608;49.486;9.640;2023-06-14T00:21:02;98328.34;;;11.33;69.97
57779;BME280;43608;49.486;9.640;2023-06-14T00:21:34;98307.28;;;11.22;70.09
57779;BME280;43608;49.486;9.640;2023-06-14T00:22:05;98330.13;;;11.33;70.13
57779;BME280;43608;49.486;9.640;2023-06-14T00:22:35;98321.34;;;11.26;69.84
57779;BME280;43608;49.486;9.640;2023-06-14T00:23:07;98323.06;;;11.32;70.08
57779;BME280;43608;49.486;9.640;2023-06-14T00:23:37;98327.47;;;11.31;70.22
57779;BME280;43608;49.486;9.640;2023-06-14T00:24:08;98324.00;;;11.28;70.06
57779;BME280;43608;49.486;9.640;2023-06-14T00:24:38;98312.59;;;11.22;70.32
57779;BME280;43608;49.486;9.640;2023-06-14T00:25:08;98329.28;;;11.29;70.32
57779;BME280;43608;49.486;9.640;2023-06-14T00:25:39;98321.34;;;11.29;70.23
57779;BME280;43608;49.486;9.640;2023-06-14T00:26:10;98313.47;;;11.21;70.31
57779;BME280;43608;49.486;9.640;2023-06-14T00:26:40;98322.25;;;11.27;70.54
57779;BME280;43608;49.486;9.640;2023-06-14T00:27:10;98318.72;;;11.24;70.58
57779;BME280;43608;49.486;9.640;2023-06-14T00:27:41;98321.38;;;11.24;70.29
57779;BME280;43608;49.486;9.640;2023-06-14T00:28:11;98314.34;;;11.22;70.47
57779;BME280;43608;49.486;9.640;2023-06-14T00:28:42;98310.84;;;11.18;70.39
57779;BME280;43608;49.486;9.640;2023-06-14T00:29:12;98307.34;;;11.16;70.42
57779;BME280;43608;49.486;9.640;2023-06-14T00:29:43;98323.19;;;11.22;70.10
57779;BME280;43608;49.486;9.640;2023-06-14T00:30:13;98307.34;;;11.16;70.62
57779;BME280;43608;49.486;9.640;2023-06-14T00:30:44;98314.38;;;11.20;70.65
57779;BME280;43608;49.486;9.640;2023-06-14T00:31:16;98321.47;;;11.20;70.50
57779;BME280;43608;49.486;9.640;2023-06-14T00:31:46;98323.22;;;11.19;70.77
57779;BME280;43608;49.486;9.640;2023-06-14T00:32:18;98322.34;;;11.19;70.47
57779;BME280;43608;49.486;9.640;2023-06-14T00:32:49;98317.97;;;11.16;70.55
57779;BME280;43608;49.486;9.640;2023-06-14T00:33:20;98320.63;;;11.16;70.47
57779;BME280;43608;49.486;9.640;2023-06-14T00:33:50;98323.25;;;11.18;70.45
57779;BME280;43608;49.486;9.640;2023-06-14T00:34:21;98318.00;;;11.13;70.28
57779;BME280;43608;49.486;9.640;2023-06-14T00:34:51;98315.34;;;11.15;70.43
57779;BME280;43608;49.486;9.640;2023-06-14T00:35:22;98308.31;;;11.11;70.67
57779;BME280;43608;49.486;9.640;2023-06-14T00:35:52;98308.31;;;11.11;70.75
57779;BME280;43608;49.486;9.640;2023-06-14T00:36:25;98311.84;;;11.10;70.90
57779;BME280;43608;49.486;9.640;2023-06-14T00:36:55;98318.00;;;11.13;70.84
57779;BME280;43608;49.486;9.640;2023-06-14T00:37:26;98320.66;;;11.13;71.18
57779;BME280;43608;49.486;9.640;2023-06-14T00:37:56;98315.38;;;11.10;71.15
57779;BME280;43608;49.486;9.640;2023-06-14T00:38:27;98293.41;;;11.00;71.01
57779;BME280;43608;49.486;9.640;2023-06-14T00:38:57;98314.53;;;11.08;71.28
57779;BME280;43608;49.486;9.640;2023-06-14T00:39:27;98320.69;;;11.10;71.33
57779;BME280;43608;49.486;9.640;2023-06-14T00:39:58;98318.06;;;11.07;71.24
57779;BME280;43608;49.486;9.640;2023-06-14T00:40:28;98310.13;;;11.04;71.28
57779;BME280;43608;49.486;9.640;2023-06-14T00:40:59;98311.06;;;11.01;71.39
57779;BME280;43608;49.486;9.640;2023-06-14T00:41:30;98306.66;;;10.99;71.60
57779;BME280;43608;49.486;9.640;2023-06-14T00:42:00;98320.78;;;11.02;71.50
57779;BME280;43608;49.486;9.640;2023-06-14T00:42:31;98297.97;;;10.89;71.63
57779;BME280;43608;49.486;9.640;2023-06-14T00:43:01;98319.03;;;11.00;71.73
57779;BME280;43608;49.486;9.640;2023-06-14T00:43:32;98322.59;;;11.00;71.83
57779;BME280;43608;49.486;9.640;2023-06-14T00:44:04;98323.50;;;10.98;71.93
57779;BME280;43608;49.486;9.640;2023-06-14T00:44:35;98319.09;;;10.97;71.77
57779;BME280;43608;49.486;9.640;2023-06-14T00:45:06;98309.44;;;10.89;71.87
57779;BME280;43608;49.486;9.640;2023-06-14T00:45:36;98323.50;;;10.95;71.65
57779;BME280;43608;49.486;9.640;2023-06-14T00:46:07;98306.84;;;10.85;71.90
57779;BME280;43608;49.486;9.640;2023-06-14T00:46:37;98323.56;;;10.91;71.75
57779;BME280;43608;49.486;9.640;2023-06-14T00:47:07;98316.50;;;10.90;71.63
57779;BME280;43608;49.486;9.640;2023-06-14T00:47:38;98312.97;;;10.90;71.60
57779;BME280;43608;49.486;9.640;2023-06-14T00:48:10;98300.72;;;10.80;71.88
57779;BME280;43608;49.486;9.640;2023-06-14T00:48:41;98321.81;;;10.89;71.86
57779;BME280;43608;49.486;9.640;2023-06-14T00:49:14;98322.78;;;10.83;71.92
57779;BME280;43608;49.486;9.640;2023-06-14T00:49:46;98322.75;;;10.85;71.89
57779;BME280;43608;49.486;9.640;2023-06-14T00:50:18;98328.91;;;10.87;72.00
57779;BME280;43608;49.486;9.640;2023-06-14T00:50:50;98328.94;;;10.85;72.15
57779;BME280;43608;49.486;9.640;2023-06-14T00:51:22;98316.59;;;10.81;72.28
57779;BME280;43608;49.486;9.640;2023-06-14T00:51:53;98328.06;;;10.82;72.38
57779;BME280;43608;49.486;9.640;2023-06-14T00:52:23;98269.22;;;10.50;72.33
57779;BME280;43608;49.486;9.640;2023-06-14T00:52:54;98321.94;;;10.80;72.11
57779;BME280;43608;49.486;9.640;2023-06-14T00:53:24;98323.69;;;10.79;72.06
57779;BME280;43608;49.486;9.640;2023-06-14T00:53:55;98319.31;;;10.78;72.41
57779;BME280;43608;49.486;9.640;2023-06-14T00:54:25;98327.25;;;10.78;72.42
57779;BME280;43608;49.486;9.640;2023-06-14T00:54:56;98325.50;;;10.74;72.51
57779;BME280;43608;49.486;9.640;2023-06-14T00:55:27;98300.91;;;10.63;72.68
57779;BME280;43608;49.486;9.640;2023-06-14T00:55:57;98315.84;;;10.70;72.66
57779;BME280;43608;49.486;9.640;2023-06-14T00:56:28;98269.28;;;10.44;72.67
57779;BME280;43608;49.486;9.640;2023-06-14T00:56:58;98329.06;;;10.73;72.86
57779;BME280;43608;49.486;9.640;2023-06-14T00:57:29;98313.22;;;10.67;72.59
57779;BME280;43608;49.486;9.640;2023-06-14T00:57:59;98322.00;;;10.72;72.48
57779;BME280;43608;49.486;9.640;2023-06-14T00:58:30;98312.34;;;10.65;72.44
57779;BME280;43608;49.486;9.640;2023-06-14T00:59:02;98323.81;;;10.68;72.52
57779;BME280;43608;49.486;9.640;2023-06-14T00:59:33;98322.91;;;10.69;72.66
57779;BME280;43608;49.486;9.640;2023-06-14T01:00:06;98316.78;;;10.64;72.75
57779;BME280;43608;49.486;9.640;2023-06-14T01:00:39;98315.06;;;10.62;72.90
57779;BME280;43608;49.486;9.640;2023-06-14T01:01:10;98320.34;;;10.62;72.80
57779;BME280;43608;49.486;9.640;2023-06-14T01:01:40;98326.47;;;10.67;72.98
57779;BME280;43608;49.486;9.640;2023-06-14T01:02:11;98302.72;;;10.57;73.03
57779;BME280;43608;49.486;9.640;2023-06-14T01:02:42;98305.41;;;10.53;73.12
57779;BME280;43608;49.486;9.640;2023-06-14T01:03:12;98319.44;;;10.61;73.23
57779;BME280;43608;49.486;9.640;2023-06-14T01:03:45;98323.00;;;10.62;73.03
57779;BME280;43608;49.486;9.640;2023-06-14T01:04:16;98324.75;;;10.63;73.30
57779;BME280;43608;49.486;9.640;2023-06-14T01:04:48;98329.19;;;10.61;73.21
57779;BME280;43608;49.486;9.640;2023-06-14T01:05:19;98323.94;;;10.57;73.28
57779;BME280;43608;49.486;9.640;2023-06-14T01:05:56;98322.16;;;10.56;73.12
57779;BME280;43608;49.486;9.640;2023-06-14T01:06:47;98327.47;;;10.56;73.47
57779;BME280;43608;49.486;9.640;2023-06-14T01:08:45;98324.84;;;10.52;73.48
57779;BME280;43608;49.486;9.640;2023-06-14T01:09:40;98320.47;;;10.48;73.59
57779;BME280;43608;49.486;9.640;2023-06-14T01:11:27;98318.81;;;10.37;73.75
57779;BME280;43608;49.486;9.640;2023-06-14T01:12:03;98320.53;;;10.41;73.95
57779;BME280;43608;49.486;9.640;2023-06-14T01:12:47;98315.28;;;10.38;74.08
57779;BME280;43608;49.486;9.640;2023-06-14T01:13:31;98323.22;;;10.38;73.99
57779;BME280;43608;49.486;9.640;2023-06-14T01:14:03;98312.63;;;10.32;74.03
57779;BME280;43608;49.486;9.640;2023-06-14T01:14:34;98308.22;;;10.31;74.08
57779;BME280;43608;49.486;9.640;2023-06-14T01:15:05;98321.47;;;10.37;74.12
57779;BME280;43608;49.486;9.640;2023-06-14T01:15:38;98312.69;;;10.29;74.15
57779;BME280;43608;49.486;9.640;2023-06-14T01:16:10;98325.88;;;10.34;74.27
57779;BME280;43608;49.486;9.640;2023-06-14T01:16:40;98322.38;;;10.32;74.35
57779;BME280;43608;49.486;9.640;2023-06-14T01:17:11;98313.56;;;10.28;74.36
57779;BME280;43608;49.486;9.640;2023-06-14T01:17:49;98329.41;;;10.31;74.61
57779;BME280;43608;49.486;9.640;2023-06-14T01:18:22;98317.13;;;10.24;74.47
57779;BME280;43608;49.486;9.640;2023-06-14T01:18:55;98310.09;;;10.21;74.50
57779;BME280;43608;49.486;9.640;2023-06-14T01:19:26;98313.59;;;10.27;74.61
57779;BME280;43608;49.486;9.640;2023-06-14T01:20:02;98319.72;;;10.29;74.65
57779;BME280;43608;49.486;9.640;2023-06-14T01:20:33;98314.44;;;10.29;74.73
57779;BME280;43608;49.486;9.640;2023-06-14T01:21:20;98324.16;;;10.28;74.76
57779;BME280;43608;49.486;9.640;2023-06-14T01:21:50;98318.00;;;10.24;74.68
57779;BME280;43608;49.486;9.640;2023-06-14T01:22:21;98308.34;;;10.20;74.83
57779;BME280;43608;49.486;9.640;2023-06-14T01:22:54;98326.81;;;10.27;74.73
57779;BME280;43608;49.486;9.640;2023-06-14T01:23:25;98324.19;;;10.25;74.81
57779;BME280;43608;49.486;9.640;2023-06-14T01:24:02;98322.41;;;10.25;74.68
57779;BME280;43608;49.486;9.640;2023-06-14T01:24:33;98311.88;;;10.19;74.60
57779;BME280;43608;49.486;9.640;2023-06-14T01:25:05;98310.16;;;10.14;74.54
57779;BME280;43608;49.486;9.640;2023-06-14T01:25:35;98318.91;;;10.23;75.00
57779;BME280;43608;49.486;9.640;2023-06-14T01:26:07;98318.03;;;10.23;74.66
57779;BME280;43608;49.486;9.640;2023-06-14T01:26:38;98325.97;;;10.26;74.61
57779;BME280;43608;49.486;9.640;2023-06-14T01:27:15;98316.28;;;10.20;74.67
57779;BME280;43608;49.486;9.640;2023-06-14T01:27:48;98322.41;;;10.25;74.89
57779;BME280;43608;49.486;9.640;2023-06-14T01:28:21;98329.50;;;10.23;74.72
57779;BME280;43608;49.486;9.640;2023-06-14T01:28:52;98326.00;;;10.21;74.85
57779;BME280;43608;49.486;9.640;2023-06-14T01:29:29;98322.47;;;10.22;74.84
57779;BME280;43608;49.486;9.640;2023-06-14T01:30:03;98305.78;;;10.09;75.03
57779;BME280;43608;49.486;9.640;2023-06-14T01:30:40;98326.00;;;10.20;75.13
57779;BME280;43608;49.486;9.640;2023-06-14T01:31:20;98318.97;;;10.17;75.24
57779;BME280;43608;49.486;9.640;2023-06-14T01:31:54;98314.56;;;10.16;75.24
57779;BME280;43608;49.486;9.640;2023-06-14T01:32:26;98296.13;;;10.05;75.22
57779;BME280;43608;49.486;9.640;2023-06-14T01:32:57;98306.66;;;10.10;75.24
57779;BME280;43608;49.486;9.640;2023-06-14T01:33:28;98320.75;;;10.15;75.41
57779;BME280;43608;49.486;9.640;2023-06-14T01:33:59;98317.22;;;10.12;75.20
57779;BME280;43608;49.486;9.640;2023-06-14T01:34:30;98319.88;;;10.13;75.29
57779;BME280;43608;49.486;9.640;2023-06-14T01:35:00;98309.31;;;10.08;75.49
57779;BME280;43608;49.486;9.640;2023-06-14T01:35:31;98314.63;;;10.07;75.55
57779;BME280;43608;49.486;9.640;2023-06-14T01:36:02;98327.84;;;10.10;75.74
57779;BME280;43608;49.486;9.640;2023-06-14T01:36:36;98322.59;;;10.05;75.58
57779;BME280;43608;49.486;9.640;2023-06-14T01:37:08;98311.16;;;9.99;75.62
57779;BME280;43608;49.486;9.640;2023-06-14T01:37:40;98325.22;;;10.07;75.58
57779;BME280;43608;49.486;9.640;2023-06-14T01:38:13;98310.28;;;9.98;75.40
57779;BME280;43608;49.486;9.640;2023-06-14T01:38:44;98319.94;;;10.04;75.65
57779;BME280;43608;49.486;9.640;2023-06-14T01:39:15;98305.03;;;9.95;75.51
57779;BME280;43608;49.486;9.640;2023-06-14T01:39:47;98321.75;;;10.02;75.75
57779;BME280;43608;49.486;9.640;2023-06-14T01:40:19;98320.84;;;10.01;75.94
57779;BME280;43608;49.486;9.640;2023-06-14T01:40:51;98265.50;;;9.69;75.74
57779;BME280;43608;49.486;9.640;2023-06-14T01:41:23;98311.22;;;9.94;75.78
57779;BME280;43608;49.486;9.640;2023-06-14T01:41:54;98313.88;;;9.92;76.14
57779;BME280;43608;49.486;9.640;2023-06-14T01:42:25;98320.84;;;10.00;75.80
57779;BME280;43608;49.486;9.640;2023-06-14T01:42:56;98305.06;;;9.90;76.02
57779;BME280;43608;49.486;9.640;2023-06-14T01:43:29;98316.47;;;9.96;75.98
57779;BME280;43608;49.486;9.640;2023-06-14T01:44:00;98308.59;;;9.91;76.10
57779;BME280;43608;49.486;9.640;2023-06-14T01:44:32;98317.38;;;9.96;76.11
57779;BME280;43608;49.486;9.640;2023-06-14T01:45:06;98314.72;;;9.96;76.02
57779;BME280;43608;49.486;9.640;2023-06-14T01:45:37;98316.47;;;9.96;76.16
57779;BME280;43608;49.486;9.640;2023-06-14T01:46:09;98309.47;;;9.90;76.11
57779;BME280;43608;49.486;9.640;2023-06-14T01:46:40;98316.53;;;9.92;76.26
57779;BME280;43608;49.486;9.640;2023-06-14T01:47:12;98315.63;;;9.92;76.13
57779;BME280;43608;49.486;9.640;2023-06-14T01:47:44;98313.03;;;9.87;76.34
57779;BME280;43608;49.486;9.640;2023-06-14T01:48:15;98303.34;;;9.83;76.23
57779;BME280;43608;49.486;9.640;2023-06-14T01:48:45;98313.91;;;9.86;76.37
57779;BME280;43608;49.486;9.640;2023-06-14T01:49:16;98320.94;;;9.89;76.18
57779;BME280;43608;49.486;9.640;2023-06-14T01:49:46;98317.41;;;9.87;76.14
57779;BME280;43608;49.486;9.640;2023-06-14T01:50:19;98317.47;;;9.84;76.37
57779;BME280;43608;49.486;9.640;2023-06-14T01:50:50;98299.91;;;9.72;76.40
57779;BME280;43608;49.486;9.640;2023-06-14T01:51:20;98313.97;;;9.79;76.40
57779;BME280;43608;49.486;9.640;2023-06-14T01:51:50;98325.41;;;9.79;76.67
57779;BME280;43608;49.486;9.640;2023-06-14T01:52:21;98307.81;;;9.75;76.47
57779;BME280;43608;49.486;9.640;2023-06-14T01:52:52;98319.25;;;9.80;76.69
57779;BME280;43608;49.486;9.640;2023-06-14T01:53:22;98324.50;;;9.82;76.72
57779;BME280;43608;49.486;9.640;2023-06-14T01:53:53;98317.50;;;9.78;76.48
57779;BME280;43608;49.486;9.640;2023-06-14T01:54:23;98319.25;;;9.80;76.54
57779;BME280;43608;49.486;9.640;2023-06-14T01:54:55;98315.75;;;9.78;76.61
57779;BME280;43608;49.486;9.640;2023-06-14T01:55:26;98325.44;;;9.78;76.73
57779;BME280;43608;49.486;9.640;2023-06-14T01:55:56;98320.16;;;9.76;76.61
57779;BME280;43608;49.486;9.640;2023-06-14T01:56:27;98316.63;;;9.74;76.80
57779;BME280;43608;49.486;9.640;2023-06-14T01:56:57;98313.97;;;9.74;77.41
57779;BME280;43608;49.486;9.640;2023-06-14T01:57:27;98319.28;;;9.75;76.86
57779;BME280;43608;49.486;9.640;2023-06-14T01:57:58;98307.00;;;9.67;76.63
57779;BME280;43608;49.486;9.640;2023-06-14T01:58:28;98321.06;;;9.73;76.74
57779;BME280;43608;49.486;9.640;2023-06-14T01:58:59;98313.13;;;9.69;76.76
57779;BME280;43608;49.486;9.640;2023-06-14T01:59:29;98323.69;;;9.73;76.88
57779;BME280;43608;49.486;9.640;2023-06-14T02:00:01;98324.56;;;9.74;76.74
57779;BME280;43608;49.486;9.640;2023-06-14T02:00:33;98310.50;;;9.67;76.75
57779;BME280;43608;49.486;9.640;2023-06-14T02:01:04;98303.53;;;9.58;76.57
57779;BME280;43608;49.486;9.640;2023-06-14T02:01:35;98321.94;;;9.72;76.76
57779;BME280;43608;49.486;9.640;2023-06-14T02:02:06;98307.94;;;9.61;76.95
57779;BME280;43608;49.486;9.640;2023-06-14T02:02:37;98326.38;;;9.72;76.77
57779;BME280;43608;49.486;9.640;2023-06-14T02:03:07;98293.81;;;9.59;76.80
57779;BME280;43608;49.486;9.640;2023-06-14T02:03:37;98315.81;;;9.66;76.89
57779;BME280;43608;49.486;9.640;2023-06-14T02:04:08;98326.38;;;9.70;76.79
57779;BME280;43608;49.486;9.640;2023-06-14T02:04:39;98323.72;;;9.67;76.85
57779;BME280;43608;49.486;9.640;2023-06-14T02:05:09;98317.56;;;9.68;76.94
57779;BME280;43608;49.486;9.640;2023-06-14T02:05:40;98322.88;;;9.67;77.02
57779;BME280;43608;49.486;9.640;2023-06-14T02:06:10;98323.75;;;9.66;77.16
57779;BME280;43608;49.486;9.640;2023-06-14T02:06:42;98326.41;;;9.66;77.17
57779;BME280;43608;49.486;9.640;2023-06-14T02:07:13;98312.34;;;9.59;77.12
57779;BME280;43608;49.486;9.640;2023-06-14T02:07:44;98316.75;;;9.60;77.41
57779;BME280;43608;49.486;9.640;2023-06-14T02:08:14;98311.47;;;9.55;77.48
57779;BME280;43608;49.486;9.640;2023-06-14T02:08:45;98319.41;;;9.58;77.23
57779;BME280;43608;49.486;9.640;2023-06-14T02:09:15;98322.91;;;9.59;77.33
57779;BME280;43608;49.486;9.640;2023-06-14T02:09:45;98315.00;;;9.57;77.25
57779;BME280;43608;49.486;9.640;2023-06-14T02:10:16;98324.69;;;9.60;77.62
57779;BME280;43608;49.486;9.640;2023-06-14T02:10:47;98319.38;;;9.57;77.50
57779;BME280;43608;49.486;9.640;2023-06-14T02:11:18;98322.03;;;9.55;77.46
57779;BME280;43608;49.486;9.640;2023-06-14T02:11:48;98321.19;;;9.55;77.46
57779;BME280;43608;49.486;9.640;2023-06-14T02:12:18;98324.69;;;9.57;77.66
57779;BME280;43608;49.486;9.640;2023-06-14T02:12:49;98323.84;;;9.53;77.50
57779;BME280;43608;49.486;9.640;2023-06-14T02:13:20;98322.09;;;9.51;77.48
57779;BME280;43608;49.486;9.640;2023-06-14T02:13:50;98329.97;;;9.55;77.43
57779;BME280;43608;49.486;9.640;2023-06-14T02:14:20;98328.25;;;9.51;77.68
57779;BME280;43608;49.486;9.640;2023-06-14T02:14:51;98326.50;;;9.49;77.65
57779;BME280;43608;49.486;9.640;2023-06-14T02:15:21;98304.50;;;9.40;77.67
57779;BME280;43608;49.486;9.640;2023-06-14T02:15:53;98325.59;;;9.53;77.63
57779;BME280;43608;49.486;9.640;2023-06-14T02:16:24;98326.50;;;9.49;77.79
57779;BME280;43608;49.486;9.640;2023-06-14T02:16:54;98333.53;;;9.51;77.85
57779;BME280;43608;49.486;9.640;2023-06-14T02:17:25;98330.00;;;9.49;77.75
57779;BME280;43608;49.486;9.640;2023-06-14T02:17:56;98330.00;;;9.49;77.88
57779;BME280;43608;49.486;9.640;2023-06-14T02:18:26;98337.97;;;9.51;77.90
57779;BME280;43608;49.486;9.640;2023-06-14T02:18:57;98330.91;;;9.50;77.82
57779;BME280;43608;49.486;9.640;2023-06-14T02:19:28;98329.16;;;9.47;77.69
57779;BME280;43608;49.486;9.640;2023-06-14T02:19:58;98327.41;;;9.46;77.80
57779;BME280;43608;49.486;9.640;2023-06-14T02:20:29;98323.88;;;9.42;77.83
57779;BME280;43608;49.486;9.640;2023-06-14T02:21:00;98325.66;;;9.43;77.94
57779;BME280;43608;49.486;9.640;2023-06-14T02:21:30;98323.88;;;9.46;78.02
57779;BME280;43608;49.486;9.640;2023-06-14T02:22:01;98332.66;;;9.48;77.86
57779;BME280;43608;49.486;9.640;2023-06-14T02:22:31;98326.50;;;9.47;77.87
57779;BME280;43608;49.486;9.640;2023-06-14T02:23:01;98323.00;;;9.45;78.02
57779;BME280;43608;49.486;9.640;2023-06-14T02:23:32;98319.50;;;9.43;78.05
57779;BME280;43608;49.486;9.640;2023-06-14T02:24:02;98327.38;;;9.48;78.00
57779;BME280;43608;49.486;9.640;2023-06-14T02:24:33;98329.16;;;9.47;78.01
57779;BME280;43608;49.486;9.640;2023-06-14T02:25:04;98328.25;;;9.47;77.95
57779;BME280;43608;49.486;9.640;2023-06-14T02:25:34;98328.28;;;9.45;78.05
57779;BME280;43608;49.486;9.640;2023-06-14T02:26:05;98325.66;;;9.43;77.99
57779;BME280;43608;49.486;9.640;2023-06-14T02:26:36;98322.13;;;9.41;78.02
57779;BME280;43608;49.486;9.640;2023-06-14T02:27:08;98330.91;;;9.45;78.11
57779;BME280;43608;49.486;9.640;2023-06-14T02:27:40;98336.22;;;9.45;78.17
57779;BME280;43608;49.486;9.640;2023-06-14T02:28:10;98324.78;;;9.38;78.12
57779;BME280;43608;49.486;9.640;2023-06-14T02:28:41;98334.47;;;9.42;78.03
57779;BME280;43608;49.486;9.640;2023-06-14T02:29:11;98330.06;;;9.40;78.01
57779;BME280;43608;49.486;9.640;2023-06-14T02:29:44;98326.56;;;9.39;78.18
57779;BME280;43608;49.486;9.640;2023-06-14T02:30:15;98312.47;;;9.30;78.07
57779;BME280;43608;49.486;9.640;2023-06-14T02:30:46;98329.22;;;9.36;78.28
57779;BME280;43608;49.486;9.640;2023-06-14T02:31:16;98320.44;;;9.33;78.15
57779;BME280;43608;49.486;9.640;2023-06-14T02:31:46;98321.34;;;9.29;78.27
57779;BME280;43608;49.486;9.640;2023-06-14T02:32:18;98314.28;;;9.24;78.28
57779;BME280;43608;49.486;9.640;2023-06-14T02:32:48;98336.25;;;9.36;78.15
57779;BME280;43608;49.486;9.640;2023-06-14T02:33:21;98334.50;;;9.35;78.24
57779;BME280;43608;49.486;9.640;2023-06-14T02:33:52;98339.81;;;9.36;78.38
57779;BME280;43608;49.486;9.640;2023-06-14T02:34:22;98328.38;;;9.31;78.37
57779;BME280;43608;49.486;9.640;2023-06-14T02:34:53;98342.44;;;9.35;78.47
57779;BME280;43608;49.486;9.640;2023-06-14T02:35:23;98338.94;;;9.31;78.52
57779;BME280;43608;49.486;9.640;2023-06-14T02:35:56;98324.84;;;9.24;78.60
57779;BME280;43608;49.486;9.640;2023-06-14T02:36:27;98337.19;;;9.29;78.46
57779;BME280;43608;49.486;9.640;2023-06-14T02:37:00;98338.97;;;9.25;78.49
57779;BME280;43608;49.486;9.640;2023-06-14T02:37:32;98331.03;;;9.20;78.57
57779;BME280;43608;49.486;9.640;2023-06-14T02:38:04;98337.19;;;9.25;78.77
57779;BME280;43608;49.486;9.640;2023-06-14T02:38:34;98333.69;;;9.19;78.84
57779;BME280;43608;49.486;9.640;2023-06-14T02:39:04;98324.03;;;9.16;78.74
57779;BME280;43608;49.486;9.640;2023-06-14T02:39:35;98342.50;;;9.24;78.78
57779;BME280;43608;49.486;9.640;2023-06-14T02:40:06;98334.59;;;9.21;78.72
57779;BME280;43608;49.486;9.640;2023-06-14T02:40:39;98324.91;;;9.15;79.06
57779;BME280;43608;49.486;9.640;2023-06-14T02:41:12;98340.75;;;9.21;78.98
57779;BME280;43608;49.486;9.640;2023-06-14T02:41:42;98337.22;;;9.21;78.97
57779;BME280;43608;49.486;9.640;2023-06-14T02:42:13;98338.09;;;9.17;79.03
57779;BME280;43608;49.486;9.640;2023-06-14T02:42:43;98328.41;;;9.14;79.14
57779;BME280;43608;49.486;9.640;2023-06-14T02:43:13;98327.56;;;9.11;79.04
57779;BME280;43608;49.486;9.640;2023-06-14T02:43:44;98333.72;;;9.13;79.09
57779;BME280;43608;49.486;9.640;2023-06-14T02:44:14;98331.97;;;9.12;79.24
57779;BME280;43608;49.486;9.640;2023-06-14T02:44:45;98332.84;;;9.14;79.08
57779;BME280;43608;49.486;9.640;2023-06-14T02:45:17;98337.25;;;9.16;79.25
57779;BME280;43608;49.486;9.640;2023-06-14T02:45:47;98332.84;;;9.12;78.70
57779;BME280;43608;49.486;9.640;2023-06-14T02:46:18;98342.53;;;9.16;79.28
57779;BME280;43608;49.486;9.640;2023-06-14T02:46:48;98343.41;;;9.15;79.14
57779;BME280;43608;49.486;9.640;2023-06-14T02:47:19;98335.53;;;9.09;79.12
57779;BME280;43608;49.486;9.640;2023-06-14T02:47:49;98307.38;;;8.94;78.92
57779;BME280;43608;49.486;9.640;2023-06-14T02:48:20;98345.19;;;9.15;79.30
57779;BME280;43608;49.486;9.640;2023-06-14T02:48:50;98339.00;;;9.14;79.24
57779;BME280;43608;49.486;9.640;2023-06-14T02:49:22;98333.72;;;9.13;79.35
57779;BME280;43608;49.486;9.640;2023-06-14T02:49:52;98338.13;;;9.12;79.32
57779;BME280;43608;49.486;9.640;2023-06-14T02:50:22;98331.97;;;9.10;79.36
57779;BME280;43608;49.486;9.640;2023-06-14T02:50:54;98333.78;;;9.06;79.43